Time;durP1;ratioP1;P1;durP2;ratioP2;P2;SDS_P1;SDS_P2;PMS_P1;PMS_P2;Temp;Humidity;BMP_temperature;BMP_pressure;BME280_temperature;BME280_humidity;BME280_pressure;Samples;Min_cycle;Max_cycle;Signal;HPM_P1;HPM_P2
2022/05/22 00:00:32;;;;;;;3.80;1.35;;;15.50;48.60;;;;;;4968997;28;20041;-74
2022/05/22 00:02:58;;;;;;;4.75;1.38;;;15.40;48.50;;;;;;4965252;28;20537;-74
2022/05/22 00:05:24;;;;;;;2.45;1.35;;;15.40;48.60;;;;;;4984411;28;20023;-74
2022/05/22 00:07:50;;;;;;;3.58;1.83;;;15.30;48.60;;;;;;4970648;28;20038;-74
2022/05/22 00:10:17;;;;;;;3.75;1.33;;;15.30;48.70;;;;;;4964895;28;20118;-74
2022/05/22 00:12:43;;;;;;;2.75;1.60;;;15.30;48.80;;;;;;4970045;28;20082;-74
2022/05/22 00:15:12;;;;;;;4.20;1.42;;;15.30;49.00;;;;;;4980717;28;20046;-74
2022/05/22 00:17:38;;;;;;;4.75;2.00;;;15.30;49.00;;;;;;4986639;28;20026;-73
2022/05/22 00:20:04;;;;;;;3.88;1.80;;;15.20;49.00;;;;;;4991194;28;20440;-74
2022/05/22 00:22:31;;;;;;;3.33;1.90;;;15.20;49.10;;;;;;4986096;28;20030;-74
2022/05/22 00:24:57;;;;;;;2.78;1.58;;;15.10;49.00;;;;;;4982601;28;20076;-73
2022/05/22 00:27:23;;;;;;;2.60;1.40;;;15.10;49.10;;;;;;4985774;28;20082;-76
2022/05/22 00:29:49;;;;;;;4.72;1.33;;;15.10;49.20;;;;;;4990083;28;20057;-76
2022/05/22 00:32:15;;;;;;;3.60;1.48;;;15.10;49.30;;;;;;4981010;28;20066;-74
2022/05/22 00:34:41;;;;;;;5.50;1.27;;;15.00;49.20;;;;;;4999068;28;20060;-74
2022/05/22 00:37:08;;;;;;;2.33;1.15;;;15.00;49.30;;;;;;4989164;28;20066;-75
2022/05/22 00:39:35;;;;;;;2.63;1.48;;;15.00;49.50;;;;;;4982863;28;20026;-75
2022/05/22 00:42:01;;;;;;;3.03;1.27;;;14.90;49.40;;;;;;4977080;28;20038;-75
2022/05/22 00:44:29;;;;;;;4.15;1.80;;;14.90;49.50;;;;;;4981143;28;20030;-75
2022/05/22 00:46:55;;;;;;;3.53;1.45;;;14.90;49.60;;;;;;4986727;28;20386;-74
2022/05/22 00:49:30;;;;;;;1.60;1.23;;;14.80;49.50;;;;;;4986436;28;20065;-74
2022/05/22 00:52:17;;;;;;;3.17;1.50;;;14.80;49.70;;;;;;4985685;28;20038;-74
2022/05/22 00:54:47;;;;;;;2.08;1.40;;;14.70;49.70;;;;;;4976899;28;20027;-73
2022/05/22 00:57:33;;;;;;;3.63;1.23;;;14.70;49.70;;;;;;4982622;28;20214;-74
2022/05/22 01:00:01;;;;;;;4.25;1.63;;;14.60;49.70;;;;;;4981382;28;20034;-74
2022/05/22 01:02:28;;;;;;;2.60;1.83;;;14.60;49.70;;;;;;4984392;28;20524;-74
2022/05/22 01:05:14;;;;;;;4.30;1.50;;;14.50;49.70;;;;;;4990250;28;20560;-74
2022/05/22 01:07:39;;;;;;;3.22;1.52;;;14.50;49.70;;;;;;4982555;28;20525;-74
2022/05/22 01:10:06;;;;;;;4.78;1.50;;;14.50;49.90;;;;;;4986878;28;20065;-74
2022/05/22 01:12:32;;;;;;;2.80;1.90;;;14.50;50.00;;;;;;4966745;28;20037;-74
2022/05/22 01:14:58;;;;;;;2.47;1.23;;;14.40;49.90;;;;;;4967183;28;20026;-74
2022/05/22 01:17:24;;;;;;;3.00;1.30;;;14.40;50.10;;;;;;4964945;28;20331;-74
2022/05/22 01:20:00;;;;;;;4.28;1.52;;;14.40;50.20;;;;;;4984146;28;20069;-73
2022/05/22 01:22:28;;;;;;;3.95;1.25;;;14.40;50.40;;;;;;4983300;28;20026;-73
2022/05/22 01:24:55;;;;;;;2.58;1.58;;;14.30;50.20;;;;;;4967812;28;20418;-74
2022/05/22 01:27:23;;;;;;;1.98;1.33;;;14.30;50.30;;;;;;4982546;28;20026;-74
2022/05/22 01:30:18;;;;;;;3.05;1.73;;;14.30;50.40;;;;;;4973518;28;20389;-75
2022/05/22 01:32:49;;;;;;;3.42;1.30;;;14.30;50.50;;;;;;4971243;28;20030;-74
2022/05/22 01:35:21;;;;;;;4.25;1.20;;;14.30;50.50;;;;;;4968491;28;20027;-74
2022/05/22 01:37:48;;;;;;;4.32;1.73;;;14.30;50.60;;;;;;4968120;28;20041;-74
2022/05/22 01:40:16;;;;;;;5.45;1.92;;;14.30;50.60;;;;;;4968271;28;20057;-74
2022/05/22 01:42:44;;;;;;;3.25;1.27;;;14.30;50.70;;;;;;4968231;28;20409;-74
2022/05/22 01:45:13;;;;;;;4.43;1.55;;;14.30;50.80;;;;;;4975016;28;20026;-74
2022/05/22 01:47:40;;;;;;;3.00;1.45;;;14.30;50.90;;;;;;4968378;28;20062;-74
2022/05/22 01:50:08;;;;;;;3.05;1.38;;;14.30;50.90;;;;;;4985556;28;20031;-73
2022/05/22 01:52:38;;;;;;;4.40;1.67;;;14.30;51.00;;;;;;4989083;28;20055;-74
2022/05/22 01:55:07;;;;;;;2.63;1.40;;;14.30;51.00;;;;;;4970404;28;20505;-74
2022/05/22 01:57:33;;;;;;;2.15;1.10;;;14.20;50.90;;;;;;4972311;28;20038;-74
2022/05/22 02:00:00;;;;;;;6.68;2.55;;;14.20;51.00;;;;;;4994981;28;20133;-74
2022/05/22 02:02:27;;;;;;;3.72;1.85;;;14.20;51.00;;;;;;4988046;28;20308;-74
2022/05/22 02:04:56;;;;;;;3.38;1.70;;;14.10;51.00;;;;;;4995495;28;20041;-74
2022/05/22 02:10:09;;;;;;;2.72;1.52;;;14.10;51.10;;;;;;4977133;28;20029;-74
2022/05/22 02:12:35;;;;;;;2.72;1.23;;;14.10;51.20;;;;;;4986208;28;20406;-74
2022/05/22 02:15:05;;;;;;;2.28;1.25;;;14.00;51.10;;;;;;4985033;28;20393;-74
2022/05/22 02:17:33;;;;;;;2.33;1.42;;;14.00;51.20;;;;;;4983525;28;20034;-74
2022/05/22 02:19:59;;;;;;;3.25;1.45;;;14.00;51.30;;;;;;4985966;28;20116;-74
2022/05/22 02:22:43;;;;;;;3.53;1.40;;;13.90;51.20;;;;;;4988022;28;20037;-74
2022/05/22 02:25:15;;;;;;;2.72;1.50;;;13.90;51.30;;;;;;4978550;28;20031;-74
2022/05/22 02:27:41;;;;;;;3.60;1.27;;;13.90;51.40;;;;;;4973792;28;20403;-74
2022/05/22 02:30:09;;;;;;;4.15;1.20;;;13.90;51.40;;;;;;4976203;28;20132;-74
2022/05/22 02:32:36;;;;;;;3.92;1.83;;;13.80;51.40;;;;;;4991472;28;20380;-75
2022/05/22 02:35:06;;;;;;;1.98;1.10;;;13.80;51.40;;;;;;4990963;28;20030;-74
2022/05/22 02:37:40;;;;;;;3.13;1.25;;;13.80;51.50;;;;;;4994591;28;20037;-74
2022/05/22 02:40:15;;;;;;;2.30;1.27;;;13.70;52.10;;;;;;4976494;28;20041;-74
2022/05/22 02:42:52;;;;;;;3.58;1.35;;;13.70;51.50;;;;;;4974417;28;20038;-74
2022/05/22 02:45:26;;;;;;;4.47;1.50;;;13.70;51.60;;;;;;4974972;28;20019;-74
2022/05/22 02:47:59;;;;;;;4.78;1.30;;;13.70;51.60;;;;;;4977295;28;20077;-74
2022/05/22 02:50:28;;;;;;;4.30;1.67;;;13.60;51.50;;;;;;4993374;28;20108;-75
2022/05/22 02:53:00;;;;;;;2.45;1.27;;;13.60;51.60;;;;;;4980570;28;20038;-75
2022/05/22 02:55:30;;;;;;;3.17;2.15;;;13.60;51.70;;;;;;4968854;28;20057;-75
2022/05/22 02:57:56;;;;;;;4.50;1.55;;;13.60;51.80;;;;;;4973625;28;20037;-75
2022/05/22 03:00:26;;;;;;;2.53;1.20;;;13.60;51.90;;;;;;4989812;28;20034;-75
2022/05/22 03:02:57;;;;;;;4.88;1.73;;;13.50;51.80;;;;;;4973395;28;20077;-75
2022/05/22 03:05:26;;;;;;;2.08;1.35;;;13.50;51.80;;;;;;4963803;28;20037;-75
2022/05/22 03:07:53;;;;;;;3.15;1.42;;;13.40;51.70;;;;;;4975535;28;20038;-75
2022/05/22 03:10:31;;;;;;;4.43;1.20;;;13.40;51.70;;;;;;4989343;28;20577;-75
2022/05/22 03:12:57;;;;;;;1.60;1.20;;;13.40;51.80;;;;;;4977179;28;20045;-75
2022/05/22 03:15:28;;;;;;;3.45;1.25;;;13.40;51.90;;;;;;4996659;28;20026;-75
2022/05/22 03:17:55;;;;;;;2.67;1.10;;;13.40;52.00;;;;;;4988803;28;20046;-75
2022/05/22 03:20:20;;;;;;;3.92;1.40;;;13.30;51.80;;;;;;4973181;28;20116;-74
2022/05/22 03:22:46;;;;;;;3.03;1.88;;;13.30;52.00;;;;;;4989124;28;20080;-74
2022/05/22 03:25:13;;;;;;;2.92;1.20;;;13.30;52.00;;;;;;4983448;28;20262;-74
2022/05/22 03:27:39;;;;;;;2.65;1.50;;;13.30;52.10;;;;;;4971413;28;20038;-74
2022/05/22 03:30:07;;;;;;;3.30;1.27;;;13.20;52.00;;;;;;4972629;28;20486;-74
2022/05/22 03:32:33;;;;;;;3.50;1.25;;;13.20;52.10;;;;;;4988039;28;20038;-74
2022/05/22 03:35:02;;;;;;;11.95;2.17;;;13.20;52.20;;;;;;4974472;28;20375;-74
2022/05/22 03:37:29;;;;;;;4.50;1.10;;;13.20;52.30;;;;;;4982990;28;20177;-74
2022/05/22 03:39:58;;;;;;;3.22;1.15;;;13.10;52.10;;;;;;4966667;28;20383;-74
2022/05/22 03:42:24;;;;;;;3.13;2.00;;;13.20;52.40;;;;;;4989927;28;20030;-74
2022/05/22 03:44:52;;;;;;;4.03;1.92;;;13.10;52.20;;;;;;4974223;28;20244;-73
2022/05/22 03:47:18;;;;;;;2.42;1.20;;;13.10;52.30;;;;;;4979297;28;20229;-73
2022/05/22 03:50:04;;;;;;;3.30;1.25;;;13.10;52.30;;;;;;4972561;28;20802;-75
2022/05/22 03:52:33;;;;;;;3.83;1.17;;;13.10;52.40;;;;;;4976938;28;20057;-75
2022/05/22 03:54:59;;;;;;;2.88;1.20;;;13.00;52.30;;;;;;4972532;28;20486;-75
2022/05/22 03:57:26;;;;;;;2.88;1.23;;;13.00;52.30;;;;;;4989716;28;20248;-74
2022/05/22 03:59:52;;;;;;;3.45;1.20;;;13.00;52.90;;;;;;4971210;28;20046;-75
2022/05/22 04:02:18;;;;;;;4.88;1.27;;;13.00;52.40;;;;;;4981206;28;20037;-75
2022/05/22 04:04:46;;;;;;;2.08;1.08;;;13.00;53.10;;;;;;4956714;28;20482;-75
2022/05/22 04:07:24;;;;;;;2.45;1.10;;;13.00;53.10;;;;;;4970614;28;20498;-75
2022/05/22 04:09:56;;;;;;;2.60;1.05;;;12.90;52.40;;;;;;4994124;28;20041;-75
2022/05/22 04:12:32;;;;;;;3.72;1.45;;;12.90;52.40;;;;;;4988222;28;20038;-75
2022/05/22 04:14:58;;;;;;;2.88;1.23;;;12.90;52.40;;;;;;4972542;28;20045;-74
2022/05/22 04:17:24;;;;;;;1.73;0.98;;;12.80;52.30;;;;;;4966305;28;20043;-75
2022/05/22 04:19:50;;;;;;;2.10;1.02;;;12.80;52.40;;;;;;4988460;28;20537;-74
2022/05/22 04:22:18;;;;;;;4.90;1.30;;;12.80;52.50;;;;;;4970692;28;20019;-75
2022/05/22 04:27:31;;;;;;;1.60;1.02;;;12.80;52.60;;;;;;4987694;28;20026;-73
2022/05/22 04:29:58;;;;;;;1.58;0.93;;;12.80;52.70;;;;;;4987980;28;20073;-74
2022/05/22 04:32:27;;;;;;;1.58;1.08;;;12.80;52.80;;;;;;4974352;28;20089;-75
2022/05/22 04:34:57;;;;;;;4.95;1.20;;;12.80;52.80;;;;;;4991558;28;20026;-73
2022/05/22 04:37:25;;;;;;;3.38;1.25;;;12.70;52.70;;;;;;4975047;28;20030;-73
2022/05/22 04:39:57;;;;;;;3.80;1.17;;;12.70;52.80;;;;;;4953381;28;20042;-74
2022/05/22 04:42:23;;;;;;;1.67;1.10;;;12.70;52.80;;;;;;4987444;28;20036;-73
2022/05/22 04:44:49;;;;;;;2.03;1.13;;;12.80;53.10;;;;;;4954889;28;20033;-74
2022/05/22 04:47:41;;;;;;;7.43;1.60;;;12.80;53.10;;;;;;4970639;28;20493;-75
2022/05/22 04:50:27;;;;;;;2.30;0.95;;;12.80;53.10;;;;;;4963914;28;20131;-74
2022/05/22 04:53:16;;;;;;;2.58;1.20;;;12.80;53.10;;;;;;4986677;28;20060;-73
2022/05/22 04:56:05;;;;;;;3.88;1.30;;;12.80;53.10;;;;;;4971024;28;20027;-74
2022/05/22 04:58:46;;;;;;;3.30;1.13;;;12.80;53.00;;;;;;4971574;28;20038;-74
2022/05/22 05:01:14;;;;;;;2.03;0.93;;;12.80;53.00;;;;;;4974768;28;20022;-74
2022/05/22 05:04:00;;;;;;;4.38;1.15;;;12.90;53.30;;;;;;5002018;28;20038;-73
2022/05/22 05:06:30;;;;;;;2.20;1.15;;;12.90;53.20;;;;;;4988294;28;20078;-74
2022/05/22 05:08:58;;;;;;;3.72;1.20;;;12.90;53.30;;;;;;4957270;28;20429;-74
2022/05/22 05:11:30;;;;;;;3.72;1.33;;;13.00;53.40;;;;;;4972242;28;20096;-74
2022/05/22 05:14:01;;;;;;;3.00;1.20;;;13.00;53.50;;;;;;4965444;28;20034;-74
2022/05/22 05:16:29;;;;;;;2.40;1.10;;;13.00;53.50;;;;;;4970532;28;20436;-73
2022/05/22 05:19:15;;;;;;;2.33;1.02;;;13.10;53.70;;;;;;4980791;28;20038;-73
2022/05/22 05:21:42;;;;;;;3.53;1.45;;;13.10;53.60;;;;;;4985903;28;20041;-76
2022/05/22 05:24:11;;;;;;;3.80;1.00;;;13.10;53.60;;;;;;4986502;28;20030;-74
2022/05/22 05:26:38;;;;;;;3.28;1.20;;;13.20;53.80;;;;;;4990346;28;20033;-73
2022/05/22 05:29:11;;;;;;;3.55;1.33;;;13.20;53.80;;;;;;4975053;28;20076;-74
2022/05/22 05:31:39;;;;;;;2.97;1.83;;;13.20;53.80;;;;;;4983823;28;20052;-76
2022/05/22 05:34:05;;;;;;;2.58;1.08;;;13.30;53.90;;;;;;4999528;28;20389;-74
2022/05/22 05:36:58;;;;;;;2.90;1.50;;;13.30;53.90;;;;;;4994167;28;20100;-76
2022/05/22 05:39:27;;;;;;;1.90;1.08;;;13.40;54.00;;;;;;4987435;28;20367;-76
2022/05/22 05:42:01;;;;;;;4.30;1.95;;;13.40;54.00;;;;;;4990322;28;20026;-77
2022/05/22 05:44:33;;;;;;;2.85;0.98;;;13.40;54.00;;;;;;4938254;28;20030;-76
2022/05/22 05:47:26;;;;;;;2.67;1.10;;;13.50;54.10;;;;;;4977262;28;20492;-77
2022/05/22 05:50:13;;;;;;;2.45;1.02;;;13.50;54.00;;;;;;4985985;28;20039;-74
2022/05/22 05:52:50;;;;;;;3.72;1.60;;;13.60;54.10;;;;;;4980751;28;20030;-76
2022/05/22 05:55:48;;;;;;;5.03;1.75;;;13.70;54.30;;;;;;4965061;28;20054;-76
2022/05/22 05:58:33;;;;;;;3.28;1.38;;;13.80;54.90;;;;;;4994035;28;20651;-75
2022/05/22 06:01:14;;;;;;;2.53;1.17;;;13.90;54.20;;;;;;4990533;28;20405;-78
2022/05/22 06:03:41;;;;;;;3.00;1.08;;;14.10;54.30;;;;;;4977687;28;20417;-75
2022/05/22 06:06:08;;;;;;;2.65;1.20;;;14.20;54.30;;;;;;4970042;28;20058;-76
2022/05/22 06:08:37;;;;;;;3.30;1.77;;;14.30;54.60;;;;;;4970072;28;20029;-77
2022/05/22 06:11:32;;;;;;;5.43;1.92;;;14.40;54.80;;;;;;4965447;28;20082;-78
2022/05/22 06:14:05;;;;;;;3.75;1.35;;;14.50;54.80;;;;;;4969570;28;20026;-78
2022/05/22 06:16:31;;;;;;;3.00;1.25;;;14.60;54.70;;;;;;4958295;28;20037;-77
2022/05/22 06:19:04;;;;;;;3.45;1.40;;;14.80;55.00;;;;;;4975184;28;20503;-77
2022/05/22 06:21:30;;;;;;;4.90;1.77;;;15.00;55.20;;;;;;4969137;28;20079;-79
2022/05/22 06:23:57;;;;;;;7.05;1.95;;;15.30;55.40;;;;;;4986567;28;20117;-77
2022/05/22 06:26:41;;;;;;;5.00;2.35;;;15.60;56.20;;;;;;4989345;28;20038;-77
2022/05/22 06:29:26;;;;;;;2.60;1.75;;;15.90;55.40;;;;;;4978324;28;20944;-75
2022/05/22 06:32:15;;;;;;;2.65;1.60;;;16.10;55.40;;;;;;4992161;28;20198;-77
2022/05/22 06:34:54;;;;;;;4.97;2.33;;;16.20;55.30;;;;;;4984239;28;20027;-75
2022/05/22 06:37:40;;;;;;;3.33;1.58;;;16.30;55.50;;;;;;4992358;28;20104;-77
2022/05/22 06:40:24;;;;;;;6.05;2.13;;;16.30;55.40;;;;;;4973107;28;20141;-76
2022/05/22 06:43:10;;;;;;;4.50;1.95;;;16.40;55.50;;;;;;4969748;28;20030;-76
2022/05/22 06:46:05;;;;;;;6.70;1.85;;;16.50;55.70;;;;;;4982576;28;20129;-75
2022/05/22 06:48:49;;;;;;;5.75;2.28;;;16.50;55.50;;;;;;4984147;28;20068;-78
2022/05/22 06:51:41;;;;;;;7.13;1.60;;;16.70;55.70;;;;;;4963960;28;20050;-76
2022/05/22 06:54:25;;;;;;;3.90;1.38;;;16.70;55.60;;;;;;4976268;28;20114;-75
2022/05/22 06:57:10;;;;;;;5.88;1.50;;;16.80;55.60;;;;;;4982291;28;20117;-75
2022/05/22 07:00:12;;;;;;;3.28;1.20;;;16.80;55.60;;;;;;4960451;28;20031;-75
2022/05/22 07:02:47;;;;;;;3.15;1.60;;;16.90;55.70;;;;;;4975319;28;20434;-73
2022/05/22 07:05:26;;;;;;;4.70;1.20;;;17.00;55.80;;;;;;4971925;28;20027;-74
2022/05/22 07:08:03;;;;;;;3.15;2.10;;;17.10;55.90;;;;;;4982262;28;20034;-74
2022/05/22 07:13:43;;;;;;;2.17;1.13;;;17.40;55.80;;;;;;4975399;28;20085;-79
2022/05/22 07:16:25;;;;;;;4.93;1.23;;;17.80;56.10;;;;;;4991808;28;20050;-78
2022/05/22 07:19:16;;;;;;;3.45;1.60;;;18.20;56.00;;;;;;4979528;28;20053;-79
2022/05/22 07:21:52;;;;;;;7.18;1.65;;;18.80;55.90;;;;;;4984146;28;20426;-79
2022/05/22 07:24:37;;;;;;;3.75;1.30;;;19.60;55.80;;;;;;4979336;28;20114;-78
2022/05/22 07:27:22;;;;;;;3.42;1.50;;;20.40;55.00;;;;;;4986583;28;20026;-77
2022/05/22 07:30:24;;;;;;;4.03;1.10;;;20.90;54.20;;;;;;4980605;28;20546;-78
2022/05/22 07:33:05;;;;;;;2.72;1.60;;;21.20;54.00;;;;;;4959800;28;20047;-77
2022/05/22 07:35:32;;;;;;;4.93;1.70;;;21.40;54.00;;;;;;4985364;28;20030;-75
2022/05/22 07:38:16;;;;;;;7.35;1.85;;;21.70;53.90;;;;;;4988768;28;20034;-78
2022/05/22 07:40:49;;;;;;;2.17;1.30;;;22.00;53.40;;;;;;4981615;28;20451;-77
2022/05/22 07:43:35;;;;;;;2.97;1.42;;;22.70;52.70;;;;;;4986181;28;20501;-77
2022/05/22 07:46:27;;;;;;;4.72;1.30;;;23.50;52.00;;;;;;4980029;28;20046;-76
2022/05/22 07:49:07;;;;;;;5.15;1.30;;;24.10;51.20;;;;;;4989846;28;20045;-77
2022/05/22 07:51:44;;;;;;;3.28;0.93;;;24.50;50.70;;;;;;4991662;28;20034;-77
2022/05/22 07:54:48;;;;;;;3.28;1.30;;;24.70;50.50;;;;;;4928084;28;20056;-77
2022/05/22 07:57:43;;;;;;;3.40;1.20;;;24.60;50.50;;;;;;4926554;29;20383;-77
2022/05/22 08:00:28;;;;;;;4.50;1.20;;;24.50;50.50;;;;;;4966804;28;20038;-77
2022/05/22 08:03:08;;;;;;;4.45;1.35;;;24.50;50.90;;;;;;4979928;28;20030;-75
2022/05/22 08:05:34;;;;;;;10.23;2.25;;;24.40;50.60;;;;;;4962273;28;20026;-78
2022/05/22 08:08:03;;;;;;;34.55;2.50;;;24.40;50.70;;;;;;4964200;28;20113;-84
2022/05/22 08:10:46;;;;;;;5.50;1.63;;;24.30;50.70;;;;;;4963807;28;20042;-78
2022/05/22 08:13:18;;;;;;;;;;;24.30;51.00;;;;;;4979663;28;20122;-75
2022/05/22 08:15:44;;;;;;;2.38;1.33;;;24.20;51.00;;;;;;4971833;28;20016;-75
2022/05/22 08:18:27;;;;;;;2.30;0.90;;;24.10;51.70;;;;;;4973021;28;20038;-78
2022/05/22 08:20:53;;;;;;;3.72;1.15;;;24.10;50.90;;;;;;4993540;28;20081;-77
2022/05/22 08:23:22;;;;;;;3.40;1.27;;;24.00;50.50;;;;;;4983621;28;20034;-76
2022/05/22 08:26:12;;;;;;;3.35;1.33;;;23.90;50.20;;;;;;4965310;28;20129;-86
2022/05/22 08:28:38;;;;;;;2.70;1.02;;;23.70;49.90;;;;;;4976951;28;20105;-89
2022/05/22 08:31:06;;;;;;;3.28;1.13;;;23.60;49.80;;;;;;4965087;28;20026;-88
2022/05/22 08:33:34;;;;;;;3.90;1.20;;;23.40;49.60;;;;;;4973586;28;20022;-89
2022/05/22 08:36:03;;;;;;;4.05;1.20;;;23.30;49.60;;;;;;4981470;28;20035;-90
2022/05/22 08:38:29;;;;;;;2.72;0.80;;;23.10;49.40;;;;;;4965222;28;20117;-80
2022/05/22 08:41:16;;;;;;;4.60;1.23;;;23.00;49.30;;;;;;4993212;28;20034;-75
2022/05/22 08:44:09;;;;;;;3.22;1.38;;;22.90;49.40;;;;;;4994584;28;20030;-74
2022/05/22 08:46:54;;;;;;;5.40;1.27;;;22.90;49.80;;;;;;4982037;28;20462;-73
2022/05/22 08:49:47;;;;;;;3.20;1.13;;;22.80;49.80;;;;;;4967358;28;20180;-75
2022/05/22 08:52:34;;;;;;;1.38;0.63;;;22.80;49.80;;;;;;4977652;28;20050;-73
2022/05/22 08:55:11;;;;;;;3.38;1.02;;;22.90;49.90;;;;;;4981048;28;20046;-73
2022/05/22 09:00:26;;;;;;;3.10;1.05;;;23.00;50.00;;;;;;4981207;28;20027;-73
2022/05/22 09:03:32;;;;;;;2.88;1.20;;;23.00;49.90;;;;;;4978863;28;20039;-74
2022/05/22 09:06:04;;;;;;;2.45;1.25;;;23.10;49.60;;;;;;4963395;28;20031;-74
2022/05/22 09:08:43;;;;;;;4.95;1.80;;;23.10;49.70;;;;;;4981962;28;20145;-74
2022/05/22 09:11:42;;;;;;;3.50;1.02;;;23.10;49.40;;;;;;4981201;28;20043;-74
2022/05/22 09:14:11;;;;;;;2.17;0.80;;;23.10;49.30;;;;;;4980047;28;20104;-75
2022/05/22 09:16:44;;;;;;;2.80;1.00;;;23.10;49.50;;;;;;4986033;28;20038;-75
2022/05/22 09:19:21;;;;;;;2.00;0.70;;;23.20;49.60;;;;;;4991393;28;20057;-75
2022/05/22 09:22:16;;;;;;;3.03;1.10;;;23.10;49.40;;;;;;4984735;28;20034;-74
2022/05/22 09:24:51;;;;;;;2.17;1.00;;;23.20;49.50;;;;;;4985696;28;20041;-73
2022/05/22 09:27:23;;;;;;;4.38;1.05;;;23.20;49.60;;;;;;4967324;28;20237;-74
2022/05/22 09:30:02;;;;;;;3.92;1.00;;;23.20;49.70;;;;;;4984765;28;20030;-73
2022/05/22 09:32:39;;;;;;;2.60;1.20;;;23.20;49.70;;;;;;4975341;28;20088;-73
2022/05/22 09:35:15;;;;;;;4.43;0.82;;;23.10;49.40;;;;;;4959717;28;20042;-75
2022/05/22 09:37:46;;;;;;;2.67;0.88;;;23.20;49.60;;;;;;4970591;28;20126;-75
2022/05/22 09:40:27;;;;;;;5.30;0.93;;;23.20;49.50;;;;;;4980072;28;20065;-79
2022/05/22 09:43:11;;;;;;;4.82;1.00;;;23.20;49.40;;;;;;4979578;28;20344;-82
2022/05/22 09:46:17;;;;;;;1.92;0.85;;;23.20;49.50;;;;;;4967261;28;20018;-77
2022/05/22 09:49:04;;;;;;;2.08;0.98;;;23.20;49.50;;;;;;4986216;28;20045;-80
2022/05/22 09:52:07;;;;;;;2.42;1.10;;;23.20;49.50;;;;;;4979291;28;20122;-81
2022/05/22 09:54:41;;;;;;;3.53;1.48;;;23.20;49.60;;;;;;4954978;28;20089;-79
2022/05/22 09:57:13;;;;;;;4.40;1.63;;;23.30;49.90;;;;;;4971998;28;20030;-82
2022/05/22 10:00:18;;;;;;;2.80;1.27;;;23.30;49.90;;;;;;4989180;28;20026;-82
2022/05/22 10:03:09;;;;;;;3.22;1.20;;;23.40;50.10;;;;;;4968490;28;20521;-81
2022/05/22 10:05:53;;;;;;;3.08;1.50;;;23.40;50.10;;;;;;4977598;28;20211;-78
2022/05/22 10:08:29;;;;;;;3.50;1.27;;;23.30;50.20;;;;;;4976997;28;20049;-80
2022/05/22 10:11:05;;;;;;;5.90;1.38;;;23.40;50.30;;;;;;4974209;28;20045;-81
2022/05/22 10:13:40;;;;;;;2.20;1.27;;;23.50;50.40;;;;;;4975562;28;20042;-77
2022/05/22 10:16:17;;;;;;;3.97;1.20;;;23.70;50.70;;;;;;4972099;28;20031;-78
2022/05/22 10:18:52;;;;;;;2.97;1.05;;;23.80;50.60;;;;;;4988100;28;20030;-77
2022/05/22 10:22:01;;;;;;;1.63;0.82;;;23.90;50.60;;;;;;4980605;28;20034;-88
2022/05/22 10:24:49;;;;;;;3.08;1.25;;;24.00;50.50;;;;;;4988550;28;20030;-91
2022/05/22 10:27:33;;;;;;;2.78;1.13;;;24.10;50.50;;;;;;4986559;28;20027;-79
2022/05/22 10:30:09;;;;;;;2.80;1.27;;;24.20;50.40;;;;;;4981942;28;20053;-77
2022/05/22 10:32:51;;;;;;;1.63;1.00;;;24.40;50.40;;;;;;4974002;28;20039;-75
2022/05/22 10:35:42;;;;;;;2.67;1.30;;;24.50;50.20;;;;;;4979366;28;20026;-74
2022/05/22 10:38:31;;;;;;;3.38;1.10;;;24.60;50.00;;;;;;4979344;28;20037;-75
2022/05/22 10:43:51;;;;;;;2.83;0.90;;;25.00;50.00;;;;;;4981470;28;20038;-75
2022/05/22 10:46:17;;;;;;;3.38;1.10;;;25.10;49.60;;;;;;4996803;28;20069;-74
2022/05/22 10:48:49;;;;;;;3.92;0.90;;;25.30;49.50;;;;;;4981743;28;20191;-75
2022/05/22 10:51:28;;;;;;;1.50;0.77;;;25.40;49.20;;;;;;4989142;28;20064;-74
2022/05/22 10:53:59;;;;;;;2.80;1.17;;;25.50;49.10;;;;;;4983632;28;20033;-76
2022/05/22 10:56:32;;;;;;;2.35;0.88;;;25.60;49.00;;;;;;4988010;28;20018;-88
2022/05/22 10:59:22;;;;;;;2.70;0.90;;;25.70;48.80;;;;;;4986058;28;20032;-87
2022/05/22 11:02:00;;;;;;;1.98;0.88;;;25.90;48.40;;;;;;4981928;28;20078;-89
2022/05/22 11:04:43;;;;;;;3.03;0.80;;;26.00;48.30;;;;;;4965029;28;20026;-75
2022/05/22 11:07:11;;;;;;;2.35;0.98;;;26.20;48.00;;;;;;4986695;28;20388;-85
2022/05/22 11:10:17;;;;;;;2.42;0.77;;;26.40;47.90;;;;;;4992577;28;20165;-84
2022/05/22 11:12:43;;;;;;;1.95;0.75;;;26.60;47.60;;;;;;4971729;28;20081;-93
2022/05/22 11:15:27;;;;;;;2.85;0.68;;;26.80;47.60;;;;;;4979230;28;20030;-86
2022/05/22 11:18:11;;;;;;;1.20;0.52;;;26.90;47.10;;;;;;4965964;28;20038;-76
2022/05/22 11:20:44;;;;;;;2.45;0.75;;;27.10;46.80;;;;;;4984316;28;20478;-80
2022/05/22 11:23:29;;;;;;;1.85;0.60;;;27.20;46.60;;;;;;4985934;28;20560;-81
2022/05/22 11:26:25;;;;;;;0.60;0.13;;;27.30;46.20;;;;;;4989768;28;20034;-83
2022/05/22 11:29:00;;;;;;;0.43;0.30;;;27.40;45.90;;;;;;4988416;28;20034;-81
2022/05/22 11:31:41;;;;;;;0.80;0.20;;;27.50;45.90;;;;;;4979095;28;20252;-83
2022/05/22 11:34:26;;;;;;;1.58;0.20;;;27.60;45.70;;;;;;4966394;28;20039;-86
2022/05/22 11:37:30;;;;;;;0.95;0.17;;;27.70;45.30;;;;;;4978459;28;20034;-87
2022/05/22 11:39:58;;;;;;;1.10;0.40;;;27.80;45.20;;;;;;4993739;28;20954;-86
2022/05/22 11:42:31;;;;;;;0.75;0.25;;;28.00;45.40;;;;;;4967656;28;20111;-78
2022/05/22 11:45:06;;;;;;;1.45;0.40;;;28.10;45.10;;;;;;4990308;28;20042;-88
2022/05/22 11:47:54;;;;;;;1.35;0.38;;;28.20;44.70;;;;;;4986387;28;20035;-85
2022/05/22 11:50:20;;;;;;;0.60;0.30;;;28.20;45.40;;;;;;4997882;28;20038;-82
2022/05/22 11:53:14;;;;;;;1.35;0.20;;;28.20;44.80;;;;;;4986036;28;20046;-86
2022/05/22 11:55:58;;;;;;;2.70;0.20;;;28.20;44.50;;;;;;4982899;28;20741;-81
2022/05/22 11:58:34;;;;;;;1.30;0.40;;;28.10;44.50;;;;;;4976251;28;20045;-82
2022/05/22 12:01:20;;;;;;;1.17;0.50;;;28.10;44.60;;;;;;4982654;28;20452;-80
2022/05/22 12:04:07;;;;;;;1.40;0.45;;;28.00;44.40;;;;;;4988869;28;20312;-81
2022/05/22 12:06:53;;;;;;;1.75;0.50;;;27.80;44.60;;;;;;4984763;28;20026;-83
2022/05/22 12:09:33;;;;;;;1.27;0.47;;;27.70;44.90;;;;;;4985412;28;20026;-84
2022/05/22 12:12:08;;;;;;;2.92;1.25;;;27.80;44.90;;;;;;4981799;28;20034;-83
2022/05/22 12:15:02;;;;;;;1.33;0.70;;;27.90;45.00;;;;;;4978993;28;20061;-82
2022/05/22 12:17:37;;;;;;;0.93;0.35;;;27.90;44.70;;;;;;4961926;28;20688;-82
2022/05/22 12:20:03;;;;;;;2.67;1.08;;;28.00;44.80;;;;;;4982839;28;20582;-83
2022/05/22 12:25:24;;;;;;;1.13;0.50;;;28.00;44.50;;;;;;4983731;28;20026;-81
2022/05/22 12:27:52;;;;;;;1.25;0.50;;;28.20;44.60;;;;;;4968992;28;20485;-79
2022/05/22 12:30:26;;;;;;;1.05;0.60;;;28.30;44.50;;;;;;4983800;28;20057;-81
2022/05/22 12:33:10;;;;;;;2.35;0.80;;;28.70;44.30;;;;;;4964053;28;21384;-84
2022/05/22 12:35:42;;;;;;;1.42;0.75;;;28.90;43.70;;;;;;4984659;28;20081;-82
2022/05/22 12:38:12;;;;;;;1.92;0.82;;;29.20;43.60;;;;;;4979504;28;20022;-81
2022/05/22 12:41:07;;;;;;;1.92;0.70;;;29.40;43.30;;;;;;4984377;28;20030;-80
2022/05/22 12:43:34;;;;;;;1.40;0.52;;;29.30;43.00;;;;;;4969147;28;20047;-81
2022/05/22 12:46:03;;;;;;;1.10;0.80;;;29.30;43.30;;;;;;4982335;28;20038;-82
2022/05/22 12:48:38;;;;;;;2.38;0.80;;;29.20;43.20;;;;;;4988358;28;20046;-82
2022/05/22 12:51:10;;;;;;;1.15;0.80;;;29.00;43.40;;;;;;4990733;28;20118;-82
2022/05/22 12:53:42;;;;;;;1.67;0.70;;;29.00;43.60;;;;;;4981094;28;20034;-81
2022/05/22 12:56:29;;;;;;;3.38;0.88;;;29.00;43.50;;;;;;4953531;28;20030;-82
2022/05/22 12:58:58;;;;;;;1.77;0.50;;;28.90;43.60;;;;;;4988223;28;20084;-91
2022/05/22 13:01:37;;;;;;;2.08;0.90;;;28.70;43.70;;;;;;4979664;28;20475;-91
2022/05/22 13:04:15;;;;;;;2.25;0.98;;;28.90;43.50;;;;;;4991077;28;20316;-87
2022/05/22 13:07:02;;;;;;;1.65;0.63;;;28.90;43.20;;;;;;4984219;28;20021;-84
2022/05/22 13:09:34;;;;;;;1.85;0.95;;;28.70;43.20;;;;;;4989877;28;20030;-86
2022/05/22 13:12:04;;;;;;;1.58;0.70;;;28.80;43.70;;;;;;4978352;28;20057;-85
2022/05/22 13:14:51;;;;;;;1.35;0.88;;;28.90;43.50;;;;;;4985568;28;20026;-83
2022/05/22 13:17:30;;;;;;;1.92;0.82;;;28.70;43.20;;;;;;4986693;28;20494;-82
2022/05/22 13:20:02;;;;;;;1.00;0.55;;;28.70;43.40;;;;;;4986810;28;20311;-82
2022/05/22 13:22:32;;;;;;;1.40;0.60;;;29.00;43.50;;;;;;4972092;28;20116;-82
2022/05/22 13:24:58;;;;;;;1.67;0.55;;;29.50;43.30;;;;;;4987736;28;20089;-85
2022/05/22 13:27:46;;;;;;;1.20;0.63;;;29.90;42.80;;;;;;4981217;28;20031;-81
2022/05/22 13:30:27;;;;;;;2.83;0.85;;;30.30;42.00;;;;;;4971870;28;20215;-82
2022/05/22 13:33:09;;;;;;;1.77;0.60;;;30.70;41.70;;;;;;4976421;28;20454;-78
2022/05/22 13:35:36;;;;;;;4.13;0.60;;;30.90;41.00;;;;;;4985800;28;20038;-76
2022/05/22 13:38:04;;;;;;;1.13;0.50;;;31.00;41.10;;;;;;4989539;28;20030;-76
2022/05/22 13:40:48;;;;;;;1.42;0.47;;;31.10;40.90;;;;;;4972194;28;20022;-77
2022/05/22 13:43:38;;;;;;;3.30;0.75;;;31.20;40.50;;;;;;4980089;28;20023;-77
2022/05/22 13:46:26;;;;;;;1.20;0.38;;;31.40;40.30;;;;;;4973518;28;20590;-77
2022/05/22 13:49:06;;;;;;;1.77;0.80;;;31.40;39.90;;;;;;4964074;28;20042;-77